Time;durP1;ratioP1;P1;durP2;ratioP2;P2;SDS_P1;SDS_P2;PMS_P1;PMS_P2;Temp;Humidity;BMP_temperature;BMP_pressure;BME280_temperature;BME280_humidity;BME280_pressure;Samples;Min_cycle;Max_cycle;Signal;HPM_P1;HPM_P2
2023/08/29 00:00:30;;;;;;;5.30;3.33;;;14.30;99.90;;;;;;5073569;28;20127;-65
2023/08/29 00:02:56;;;;;;;5.30;2.80;;;14.50;99.90;;;;;;5073618;28;20044;-66
2023/08/29 00:05:21;;;;;;;6.88;3.00;;;14.20;99.90;;;;;;5073652;28;20502;-65
2023/08/29 00:07:47;;;;;;;6.85;3.00;;;14.10;99.90;;;;;;5073047;28;20484;-65
2023/08/29 00:10:12;;;;;;;5.18;3.38;;;14.40;99.90;;;;;;5073018;28;20040;-65
2023/08/29 00:12:42;;;;;;;3.92;2.65;;;14.10;99.90;;;;;;5073100;28;20488;-65
2023/08/29 00:15:09;;;;;;;5.28;3.33;;;14.10;99.90;;;;;;5073085;28;20037;-65
2023/08/29 00:17:35;;;;;;;5.88;3.08;;;14.40;99.90;;;;;;5072943;28;20404;-65
2023/08/29 00:20:01;;;;;;;4.30;2.95;;;14.30;99.90;;;;;;5072929;28;20043;-65
2023/08/29 00:22:26;;;;;;;7.80;3.00;;;14.20;99.90;;;;;;5072969;28;20125;-65
2023/08/29 00:24:52;;;;;;;5.65;3.17;;;14.40;99.90;;;;;;5072925;28;20506;-65
2023/08/29 00:27:21;;;;;;;5.97;2.97;;;14.10;99.90;;;;;;5072633;28;20133;-65
2023/08/29 00:29:47;;;;;;;3.60;2.40;;;14.10;99.90;;;;;;5072776;28;20049;-65
2023/08/29 00:32:13;;;;;;;5.88;2.75;;;14.30;99.90;;;;;;5072470;28;20099;-65
2023/08/29 00:34:38;;;;;;;5.38;2.90;;;14.00;99.90;;;;;;5072824;28;20033;-65
2023/08/29 00:37:04;;;;;;;5.75;2.65;;;14.20;99.90;;;;;;5072427;28;20036;-65
2023/08/29 00:39:30;;;;;;;4.75;2.83;;;13.90;99.90;;;;;;5072417;28;20450;-65
2023/08/29 00:41:55;;;;;;;3.92;2.30;;;14.20;99.90;;;;;;5072390;28;20037;-65
2023/08/29 00:44:21;;;;;;;3.47;2.92;;;13.80;99.90;;;;;;5072662;28;20079;-65
2023/08/29 00:46:47;;;;;;;7.25;3.33;;;14.10;99.90;;;;;;5072517;28;20033;-65
2023/08/29 00:49:17;;;;;;;3.00;2.17;;;13.90;99.90;;;;;;5071936;28;20032;-65
2023/08/29 00:51:43;;;;;;;7.47;2.50;;;14.00;99.90;;;;;;5072389;28;20086;-65
2023/08/29 00:54:09;;;;;;;5.63;2.80;;;13.70;99.90;;;;;;5072285;28;20442;-65
2023/08/29 00:56:36;;;;;;;4.70;2.35;;;13.70;99.90;;;;;;5072140;28;20151;-65
2023/08/29 00:59:05;;;;;;;6.50;2.95;;;13.70;99.90;;;;;;5054297;28;20040;-65
2023/08/29 01:01:32;;;;;;;6.38;3.35;;;13.90;99.90;;;;;;5072173;28;20040;-65
2023/08/29 01:03:58;;;;;;;4.10;2.78;;;14.00;99.90;;;;;;5072209;28;20044;-65
2023/08/29 01:06:24;;;;;;;4.82;2.97;;;13.80;99.90;;;;;;5071987;28;20043;-65
2023/08/29 01:08:50;;;;;;;4.35;2.95;;;13.60;99.90;;;;;;5071685;28;20048;-65
2023/08/29 01:11:27;;;;;;;4.85;2.65;;;13.80;99.90;;;;;;5072135;28;20044;-65
2023/08/29 01:13:57;;;;;;;3.85;2.20;;;13.90;99.90;;;;;;5072160;28;20071;-65
2023/08/29 01:16:30;;;;;;;3.08;2.47;;;13.80;99.90;;;;;;5071948;28;20039;-65
2023/08/29 01:18:56;;;;;;;4.63;2.70;;;13.60;99.90;;;;;;5071681;28;20040;-65
2023/08/29 01:22:02;;;;;;;2.72;2.10;;;13.60;99.90;;;;;;5071773;28;20103;-65
2023/08/29 01:24:40;;;;;;;5.50;2.55;;;13.70;99.90;;;;;;5071948;28;20111;-65
2023/08/29 01:27:07;;;;;;;5.40;2.95;;;13.60;99.90;;;;;;5071713;28;20041;-65
2023/08/29 01:29:36;;;;;;;4.65;2.92;;;13.70;99.90;;;;;;5071470;28;20408;-65
2023/08/29 01:32:03;;;;;;;6.30;2.50;;;13.50;99.90;;;;;;5071983;28;20037;-65
2023/08/29 01:34:29;;;;;;;6.47;2.72;;;13.70;99.90;;;;;;5071858;28;20040;-65
2023/08/29 01:36:55;;;;;;;3.88;2.47;;;13.50;99.90;;;;;;5071701;28;20041;-65
2023/08/29 01:39:20;;;;;;;3.70;2.67;;;13.80;99.90;;;;;;5071444;28;20044;-65
2023/08/29 01:41:46;;;;;;;4.68;2.65;;;13.50;99.90;;;;;;5071694;28;20408;-65
2023/08/29 01:44:11;;;;;;;3.67;2.80;;;13.70;99.90;;;;;;5070654;28;20377;-67
2023/08/29 01:46:37;;;;;;;7.57;2.95;;;13.80;99.90;;;;;;5071718;28;20071;-65
2023/08/29 01:49:04;;;;;;;3.67;2.70;;;13.80;99.90;;;;;;5071234;28;20036;-67
2023/08/29 01:51:30;;;;;;;5.32;3.10;;;13.80;99.90;;;;;;5071609;28;20041;-67
2023/08/29 01:53:56;;;;;;;3.60;2.63;;;13.80;99.90;;;;;;5071524;28;20040;-65
2023/08/29 01:56:25;;;;;;;4.32;2.70;;;13.80;99.90;;;;;;5071292;28;20068;-67
2023/08/29 01:58:54;;;;;;;6.55;3.05;;;13.50;99.90;;;;;;5071126;28;20519;-67
2023/08/29 02:01:20;;;;;;;3.72;2.55;;;13.80;99.90;;;;;;5071707;28;20045;-65
2023/08/29 02:03:46;;;;;;;3.30;2.22;;;13.40;99.90;;;;;;5071545;28;20123;-67
2023/08/29 02:06:12;;;;;;;5.65;2.97;;;13.40;99.90;;;;;;5071460;28;20119;-67
2023/08/29 02:08:38;;;;;;;3.78;2.50;;;13.50;99.90;;;;;;5071019;28;20417;-67
2023/08/29 02:11:04;;;;;;;4.90;3.05;;;13.40;99.90;;;;;;5053431;28;20124;-67
2023/08/29 02:13:29;;;;;;;5.47;2.92;;;13.40;99.90;;;;;;5071257;28;20119;-67
2023/08/29 02:15:55;;;;;;;3.08;2.33;;;13.50;99.90;;;;;;5071349;28;20040;-67
2023/08/29 02:18:20;;;;;;;3.40;1.67;;;13.50;99.90;;;;;;5053391;28;20500;-67
2023/08/29 02:20:46;;;;;;;6.00;2.10;;;13.50;99.90;;;;;;5071517;28;20060;-67
2023/08/29 02:23:11;;;;;;;1.48;1.25;;;13.40;99.90;;;;;;5071237;28;20047;-67
2023/08/29 02:25:37;;;;;;;1.73;1.23;;;13.20;99.90;;;;;;5071099;28;20074;-67
2023/08/29 02:28:03;;;;;;;2.30;1.27;;;13.30;99.90;;;;;;5071003;28;20063;-67
2023/08/29 02:30:29;;;;;;;5.28;1.60;;;13.30;99.90;;;;;;5071137;28;20045;-67
2023/08/29 02:32:55;;;;;;;2.08;0.93;;;13.20;99.90;;;;;;5071250;28;20037;-67
2023/08/29 02:35:20;;;;;;;3.72;1.40;;;13.20;99.90;;;;;;5053109;28;20056;-67
2023/08/29 02:37:46;;;;;;;3.55;1.75;;;12.90;99.90;;;;;;5071062;28;20086;-64
2023/08/29 02:40:12;;;;;;;3.88;1.77;;;12.90;99.90;;;;;;5070855;28;20041;-66
2023/08/29 02:42:37;;;;;;;2.05;1.48;;;13.10;99.90;;;;;;5071007;28;20040;-67
2023/08/29 02:45:04;;;;;;;2.38;1.40;;;13.00;99.90;;;;;;5071025;28;20051;-67
2023/08/29 02:47:29;;;;;;;1.70;0.93;;;13.00;99.90;;;;;;5070904;28;20047;-67
2023/08/29 02:49:55;;;;;;;1.27;0.98;;;12.90;99.90;;;;;;5036489;28;20041;-67
2023/08/29 02:52:21;;;;;;;4.53;1.30;;;12.80;99.90;;;;;;5071088;28;20523;-67
2023/08/29 02:54:46;;;;;;;1.75;1.15;;;12.80;99.90;;;;;;5072296;28;20507;-67
2023/08/29 02:57:12;;;;;;;1.70;1.20;;;12.90;99.90;;;;;;5074139;28;20082;-67
2023/08/29 02:59:39;;;;;;;1.67;1.20;;;12.70;99.90;;;;;;5056397;28;20127;-67
2023/08/29 03:02:04;;;;;;;3.67;1.40;;;12.80;99.90;;;;;;5040129;28;20055;-67
2023/08/29 03:04:30;;;;;;;2.05;1.30;;;13.00;99.90;;;;;;5074545;28;20040;-67
2023/08/29 03:06:56;;;;;;;2.15;1.67;;;13.00;99.90;;;;;;5039729;28;20037;-67
2023/08/29 03:09:22;;;;;;;2.33;1.42;;;12.70;99.90;;;;;;5074065;28;20114;-67
2023/08/29 03:11:48;;;;;;;2.05;1.30;;;13.00;99.90;;;;;;5074197;28;20064;-67
2023/08/29 03:14:14;;;;;;;2.88;2.00;;;12.70;99.90;;;;;;5074437;28;20513;-67
2023/08/29 03:16:39;;;;;;;3.50;1.30;;;12.70;99.90;;;;;;5074191;28;20039;-67
2023/08/29 03:19:05;;;;;;;1.88;1.10;;;12.60;99.90;;;;;;5073938;28;20036;-67
2023/08/29 03:21:31;;;;;;;2.83;1.52;;;12.80;99.90;;;;;;5056213;28;20048;-66
2023/08/29 03:23:57;;;;;;;2.03;0.90;;;12.60;99.90;;;;;;5056394;28;20401;-67
2023/08/29 03:26:22;;;;;;;1.67;1.10;;;12.70;99.90;;;;;;5073898;28;20044;-67
2023/08/29 03:28:48;;;;;;;1.83;1.10;;;12.70;99.90;;;;;;5073705;28;20072;-67
2023/08/29 03:31:16;;;;;;;3.72;1.20;;;12.50;99.90;;;;;;5073944;28;20045;-67
2023/08/29 03:33:43;;;;;;;2.83;1.92;;;12.70;99.90;;;;;;5073984;28;20124;-67
2023/08/29 03:36:09;;;;;;;1.27;0.85;;;12.60;99.90;;;;;;5073787;28;20090;-67
2023/08/29 03:38:36;;;;;;;3.05;1.88;;;12.70;99.90;;;;;;5073578;28;20028;-67
2023/08/29 03:41:03;;;;;;;2.78;1.60;;;12.60;99.90;;;;;;5073658;28;20116;-67
2023/08/29 03:43:30;;;;;;;3.28;1.90;;;12.40;99.90;;;;;;5055817;28;20044;-67
2023/08/29 03:45:59;;;;;;;3.10;1.48;;;12.50;99.90;;;;;;5073730;28;20113;-67
2023/08/29 03:48:25;;;;;;;2.60;1.83;;;12.60;99.90;;;;;;5073402;28;20047;-64
2023/08/29 03:50:50;;;;;;;5.30;2.58;;;12.50;99.90;;;;;;5073784;28;20049;-67
2023/08/29 03:53:16;;;;;;;2.95;2.00;;;12.40;99.90;;;;;;5073573;28;20025;-67
2023/08/29 03:55:42;;;;;;;6.07;2.60;;;12.60;99.90;;;;;;5055265;28;20511;-67
2023/08/29 03:58:08;;;;;;;3.28;2.22;;;12.70;99.90;;;;;;5073562;28;20044;-67
2023/08/29 04:00:34;;;;;;;4.53;2.92;;;12.70;99.90;;;;;;5073138;28;20049;-67
2023/08/29 04:03:00;;;;;;;4.90;2.70;;;12.60;99.90;;;;;;5073386;28;20040;-67
2023/08/29 04:05:27;;;;;;;4.93;3.30;;;12.70;99.90;;;;;;5072897;28;20044;-67
2023/08/29 04:07:52;;;;;;;6.70;3.30;;;12.70;99.90;;;;;;5072015;28;20411;-67
2023/08/29 04:10:18;;;;;;;4.57;3.03;;;12.70;99.90;;;;;;5073148;28;20127;-67
2023/08/29 04:12:44;;;;;;;5.13;3.58;;;12.60;99.90;;;;;;5073080;28;20047;-67
2023/08/29 04:15:12;;;;;;;4.90;3.90;;;12.80;99.90;;;;;;5073197;28;20066;-66
2023/08/29 04:17:38;;;;;;;6.22;3.13;;;12.50;99.90;;;;;;5072952;28;20036;-67
2023/08/29 04:20:13;;;;;;;5.25;2.58;;;12.70;99.90;;;;;;5072873;28;20561;-67
2023/08/29 04:22:39;;;;;;;4.65;2.33;;;12.40;99.90;;;;;;5072935;28;20044;-67
2023/08/29 04:25:08;;;;;;;3.10;2.22;;;12.40;99.90;;;;;;5073121;28;20028;-66
2023/08/29 04:27:38;;;;;;;2.90;1.95;;;12.40;99.90;;;;;;5072753;28;20507;-67
2023/08/29 04:30:04;;;;;;;3.45;1.90;;;12.30;99.90;;;;;;5072540;28;20542;-67
2023/08/29 04:32:34;;;;;;;3.00;1.88;;;12.30;99.90;;;;;;5072838;28;20447;-67
2023/08/29 04:35:00;;;;;;;3.30;1.95;;;12.30;99.90;;;;;;5072687;28;20068;-67
2023/08/29 04:37:25;;;;;;;3.63;2.33;;;12.40;99.90;;;;;;5072382;28;20488;-67
2023/08/29 04:39:51;;;;;;;3.63;2.08;;;12.30;99.90;;;;;;5072581;28;20051;-67
2023/08/29 04:42:17;;;;;;;2.60;2.10;;;12.20;99.90;;;;;;5072724;28;20115;-67
2023/08/29 04:44:42;;;;;;;3.80;2.40;;;12.20;99.90;;;;;;5072520;28;20534;-67
2023/08/29 04:47:08;;;;;;;4.40;3.03;;;12.40;99.90;;;;;;5071955;28;20075;-67
2023/08/29 04:49:34;;;;;;;4.53;2.92;;;12.30;99.90;;;;;;5072006;28;20044;-67
2023/08/29 04:52:00;;;;;;;4.40;2.88;;;12.30;99.90;;;;;;5054469;28;20400;-67
2023/08/29 04:54:26;;;;;;;6.25;3.30;;;12.20;99.90;;;;;;5072583;28;20040;-67
2023/08/29 04:56:51;;;;;;;5.57;3.15;;;12.40;99.90;;;;;;5087351;22;20035;-71
2023/08/29 04:59:17;;;;;;;4.60;2.80;;;12.40;99.90;;;;;;5091452;28;20047;-71
2023/08/29 05:01:43;;;;;;;4.55;3.05;;;12.20;99.90;;;;;;5074304;28;20040;-71
2023/08/29 05:04:09;;;;;;;5.38;3.00;;;12.30;99.90;;;;;;5074003;28;20499;-71
2023/08/29 05:06:35;;;;;;;5.63;3.33;;;12.40;99.90;;;;;;5092135;28;20068;-71
2023/08/29 05:09:01;;;;;;;4.88;3.67;;;12.40;99.90;;;;;;5091778;28;20775;-71
2023/08/29 05:11:26;;;;;;;4.47;3.53;;;12.50;99.90;;;;;;5092130;28;20115;-71
2023/08/29 05:13:52;;;;;;;5.88;3.72;;;12.30;99.90;;;;;;5092094;28;20036;-71
2023/08/29 05:16:17;;;;;;;4.13;3.30;;;12.50;99.90;;;;;;5091993;28;20070;-71
2023/08/29 05:18:43;;;;;;;4.93;3.22;;;12.30;99.90;;;;;;5091623;28;20089;-71
2023/08/29 05:21:08;;;;;;;6.07;2.97;;;12.40;99.90;;;;;;5092117;28;20036;-71
2023/08/29 05:23:34;;;;;;;4.47;3.38;;;12.60;99.90;;;;;;5091935;28;20040;-71
2023/08/29 05:25:59;;;;;;;4.97;2.90;;;12.60;99.90;;;;;;5073909;28;20111;-71
2023/08/29 05:28:25;;;;;;;4.70;3.45;;;12.70;99.90;;;;;;5091511;28;20047;-71
2023/08/29 05:30:51;;;;;;;5.35;4.05;;;13.00;99.90;;;;;;5091818;28;20392;-71
2023/08/29 05:33:17;;;;;;;5.03;3.58;;;13.00;99.90;;;;;;5091660;28;20119;-71
2023/08/29 05:35:43;;;;;;;5.90;3.53;;;13.20;99.90;;;;;;5091651;28;20503;-71
2023/08/29 05:38:09;;;;;;;5.90;3.42;;;13.30;99.90;;;;;;5091729;28;20043;-71
2023/08/29 05:40:34;;;;;;;5.18;3.58;;;13.20;99.90;;;;;;5073694;28;20048;-71
2023/08/29 05:43:00;;;;;;;5.03;3.70;;;13.40;99.90;;;;;;5091709;28;20048;-71
2023/08/29 05:45:26;;;;;;;7.28;3.60;;;13.20;99.90;;;;;;5091609;28;20047;-71
2023/08/29 05:47:51;;;;;;;4.35;2.85;;;13.50;99.90;;;;;;5091439;28;20042;-71
2023/08/29 05:50:17;;;;;;;4.63;3.03;;;13.30;99.90;;;;;;5091607;28;20067;-71
2023/08/29 05:52:42;;;;;;;6.53;3.58;;;13.40;99.90;;;;;;5091774;28;20115;-71
2023/08/29 05:55:08;;;;;;;5.10;2.80;;;13.40;99.90;;;;;;5091729;28;20068;-71
2023/08/29 05:57:34;;;;;;;3.88;2.83;;;13.60;99.90;;;;;;5091289;28;20036;-71
2023/08/29 05:59:59;;;;;;;3.65;2.80;;;13.60;99.90;;;;;;5091370;28;20097;-70
2023/08/29 06:02:25;;;;;;;5.00;3.45;;;13.50;99.90;;;;;;5073407;28;20040;-71
2023/08/29 06:04:50;;;;;;;6.50;3.00;;;13.40;99.90;;;;;;5091359;28;20079;-68
2023/08/29 06:07:16;;;;;;;5.68;3.13;;;13.50;99.90;;;;;;5091479;28;20132;-69
2023/08/29 06:09:42;;;;;;;3.67;2.42;;;13.70;99.90;;;;;;5091189;28;20052;-70
2023/08/29 06:12:07;;;;;;;3.22;2.63;;;13.50;99.90;;;;;;5091539;28;20032;-69
2023/08/29 06:14:33;;;;;;;5.35;2.60;;;13.80;99.90;;;;;;5091487;28;20032;-69
2023/08/29 06:16:59;;;;;;;5.07;2.35;;;13.70;99.90;;;;;;5091176;28;20381;-69
2023/08/29 06:19:25;;;;;;;4.88;2.90;;;13.80;99.90;;;;;;5091010;28;20563;-70
2023/08/29 06:21:51;;;;;;;3.17;2.25;;;13.90;99.90;;;;;;5073417;28;20040;-69
2023/08/29 06:24:16;;;;;;;3.53;2.63;;;14.30;99.90;;;;;;5088396;28;20036;-70
2023/08/29 06:26:42;;;;;;;3.15;2.20;;;14.40;99.90;;;;;;5089027;28;20040;-70
2023/08/29 06:29:07;;;;;;;4.60;2.60;;;14.90;99.90;;;;;;5091201;28;20036;-70
2023/08/29 06:31:33;;;;;;;2.75;2.00;;;15.10;99.90;;;;;;5095222;28;20044;-70
2023/08/29 06:33:59;;;;;;;3.95;2.15;;;15.40;99.90;;;;;;5095199;28;20034;-70
2023/08/29 06:36:26;;;;;;;4.30;2.60;;;15.60;99.90;;;;;;5077049;28;20122;-69
2023/08/29 06:38:52;;;;;;;5.53;2.92;;;15.90;99.90;;;;;;5076813;28;20097;-70
2023/08/29 06:41:17;;;;;;;4.78;3.42;;;16.00;99.90;;;;;;5095327;28;20044;-69
2023/08/29 06:43:43;;;;;;;4.65;3.15;;;16.30;99.90;;;;;;5095185;28;20047;-69
2023/08/29 06:46:08;;;;;;;8.63;4.03;;;16.30;99.90;;;;;;5094961;28;20047;-69
2023/08/29 06:48:34;;;;;;;4.15;2.97;;;16.60;99.90;;;;;;5076845;28;20372;-69
2023/08/29 06:50:59;;;;;;;5.53;3.10;;;16.90;99.90;;;;;;5094926;28;20570;-69
2023/08/29 06:53:26;;;;;;;3.65;2.42;;;17.20;99.90;;;;;;5076873;28;20411;-69
2023/08/29 06:55:52;;;;;;;4.00;2.20;;;17.10;99.90;;;;;;5076502;28;20097;-70
2023/08/29 06:58:17;;;;;;;4.78;2.53;;;17.20;99.90;;;;;;5094702;28;20504;-69
2023/08/29 07:00:43;;;;;;;3.65;2.08;;;17.60;99.90;;;;;;5076862;28;20584;-69
2023/08/29 07:03:08;;;;;;;4.00;2.55;;;17.50;99.90;;;;;;5076369;28;20507;-69
2023/08/29 07:05:34;;;;;;;3.45;1.85;;;17.70;99.90;;;;;;5094821;28;20039;-69
2023/08/29 07:08:00;;;;;;;4.07;2.00;;;18.00;99.90;;;;;;5076357;28;20040;-69
2023/08/29 07:10:25;;;;;;;6.65;2.40;;;18.40;99.90;;;;;;5094279;28;20089;-70
2023/08/29 07:12:51;;;;;;;3.63;2.20;;;18.50;99.90;;;;;;5076614;28;20040;-70
2023/08/29 07:15:17;;;;;;;4.63;1.70;;;18.50;99.90;;;;;;5094496;28;20046;-69
2023/08/29 07:17:42;;;;;;;3.40;2.00;;;18.90;99.90;;;;;;5094189;28;20078;-69
2023/08/29 07:20:08;;;;;;;2.90;1.63;;;18.90;99.90;;;;;;5094490;28;20127;-69
2023/08/29 07:22:38;;;;;;;3.20;1.73;;;18.90;99.90;;;;;;5077660;28;20047;-69
2023/08/29 07:25:04;;;;;;;2.47;1.50;;;19.40;99.90;;;;;;5078747;28;20114;-69
2023/08/29 07:27:32;;;;;;;2.03;1.30;;;19.70;99.90;;;;;;5093384;28;20116;-70
2023/08/29 07:29:58;;;;;;;1.60;1.17;;;19.70;99.90;;;;;;5109322;28;20040;-69
2023/08/29 07:32:24;;;;;;;2.88;1.30;;;19.90;99.90;;;;;;5110135;28;20036;-70
2023/08/29 07:34:51;;;;;;;2.55;1.27;;;20.30;99.90;;;;;;5094333;28;20043;-69
2023/08/29 07:37:16;;;;;;;2.40;1.23;;;19.90;99.90;;;;;;5093822;28;20522;-70
2023/08/29 07:39:43;;;;;;;2.35;0.95;;;20.00;99.90;;;;;;5109616;28;20119;-69
2023/08/29 07:42:08;;;;;;;2.58;0.70;;;20.00;99.90;;;;;;5092611;28;20115;-68
2023/08/29 07:44:34;;;;;;;3.13;1.00;;;19.80;99.90;;;;;;5093838;28;20121;-69
2023/08/29 07:46:59;;;;;;;2.22;1.00;;;19.90;99.90;;;;;;5094002;28;20036;-69
2023/08/29 07:49:25;;;;;;;3.60;0.80;;;19.80;99.90;;;;;;5093759;28;20047;-69
2023/08/29 07:51:52;;;;;;;2.15;0.90;;;19.90;99.90;;;;;;5075633;28;20153;-69
2023/08/29 07:54:19;;;;;;;1.92;0.70;;;20.00;99.90;;;;;;5093849;28;20043;-69
2023/08/29 07:56:44;;;;;;;3.60;1.33;;;19.70;99.90;;;;;;5093426;28;20040;-69
2023/08/29 07:59:10;;;;;;;1.08;0.60;;;19.50;99.90;;;;;;5093267;28;20042;-69
2023/08/29 08:01:35;;;;;;;0.68;0.43;;;19.50;99.90;;;;;;5093727;28;20507;-68
2023/08/29 08:04:05;;;;;;;1.80;0.30;;;19.20;99.90;;;;;;5093730;28;20044;-69
2023/08/29 08:06:30;;;;;;;1.08;0.40;;;19.30;99.90;;;;;;5093531;28;20067;-68
2023/08/29 08:08:57;;;;;;;0.88;0.80;;;19.10;99.90;;;;;;5093267;28;20043;-67
2023/08/29 08:11:23;;;;;;;1.63;0.50;;;19.10;99.90;;;;;;5093338;28;20040;-69
2023/08/29 08:13:49;;;;;;;3.00;0.60;;;19.20;99.90;;;;;;5109112;28;20047;-69
2023/08/29 08:16:14;;;;;;;3.13;0.70;;;19.00;99.90;;;;;;5093165;28;20078;-69
2023/08/29 08:18:40;;;;;;;2.65;0.50;;;19.10;99.90;;;;;;5092721;28;20093;-69
2023/08/29 08:21:05;;;;;;;2.85;0.90;;;19.20;99.90;;;;;;5092902;28;20028;-69
2023/08/29 08:23:31;;;;;;;2.75;0.45;;;19.10;99.90;;;;;;5093273;28;20064;-69
2023/08/29 08:25:57;;;;;;;2.42;0.60;;;19.10;99.90;;;;;;5093177;28;20467;-69
2023/08/29 08:28:22;;;;;;;1.33;0.47;;;19.20;99.90;;;;;;5092222;28;20044;-69
2023/08/29 08:30:48;;;;;;;1.13;0.60;;;18.80;99.90;;;;;;5095326;28;20437;-69
2023/08/29 08:33:14;;;;;;;0.85;0.50;;;18.70;99.90;;;;;;5092995;28;20047;-68
2023/08/29 08:35:39;;;;;;;2.00;0.63;;;18.70;99.90;;;;;;5092909;28;20111;-68
2023/08/29 08:38:07;;;;;;;4.97;1.60;;;18.90;99.90;;;;;;5092204;28;20093;-69
2023/08/29 08:40:34;;;;;;;1.73;0.63;;;19.00;99.90;;;;;;5092685;28;20097;-69
2023/08/29 08:43:05;;;;;;;1.83;0.55;;;19.10;99.90;;;;;;5092564;28;20051;-70
2023/08/29 08:45:30;;;;;;;2.38;1.38;;;19.20;99.90;;;;;;5092927;28;20051;-70
2023/08/29 08:47:58;;;;;;;0.77;0.40;;;19.50;99.90;;;;;;5092613;28;20511;-71
2023/08/29 08:50:25;;;;;;;0.70;0.40;;;19.80;99.90;;;;;;5092483;28;20055;-71
2023/08/29 08:52:51;;;;;;;1.88;0.57;;;20.00;99.90;;;;;;5078424;28;20036;-71
2023/08/29 08:55:17;;;;;;;1.40;0.90;;;20.10;99.90;;;;;;5094103;28;20081;-71
2023/08/29 08:57:43;;;;;;;2.40;0.63;;;20.10;99.90;;;;;;5112320;28;20043;-70
2023/08/29 09:00:09;;;;;;;1.05;0.50;;;20.30;99.90;;;;;;5112058;28;20047;-69
2023/08/29 09:02:39;;;;;;;2.25;0.50;;;20.40;99.90;;;;;;5112557;28;20039;-71
2023/08/29 09:05:05;;;;;;;0.68;0.50;;;20.70;99.90;;;;;;5113023;28;20043;-71
2023/08/29 09:07:31;;;;;;;1.15;0.52;;;21.10;99.90;;;;;;5112516;28;20043;-71
2023/08/29 09:10:15;;;;;;;0.88;0.57;;;21.00;99.90;;;;;;5093170;28;20032;-71
2023/08/29 09:12:52;;;;;;;2.35;0.80;;;20.60;99.90;;;;;;5074305;28;20040;-71
2023/08/29 09:15:19;;;;;;;0.93;0.65;;;20.30;99.90;;;;;;5074339;28;20449;-71
2023/08/29 09:17:49;;;;;;;2.55;0.47;;;20.00;99.90;;;;;;5091653;28;20077;-71
2023/08/29 09:20:15;;;;;;;1.10;0.60;;;19.90;99.90;;;;;;5091889;28;20040;-71
2023/08/29 09:22:45;;;;;;;1.50;0.63;;;20.10;99.90;;;;;;5073829;28;20051;-72
2023/08/29 09:25:11;;;;;;;0.75;0.50;;;20.20;99.90;;;;;;5092212;28;20047;-71
2023/08/29 09:27:47;;;;;;;1.40;0.93;;;20.20;99.90;;;;;;5091895;28;20032;-72
2023/08/29 09:30:15;;;;;;;0.82;0.40;;;20.40;99.90;;;;;;5056825;28;20145;-72
2023/08/29 09:32:43;;;;;;;1.20;0.40;;;20.20;99.90;;;;;;5073236;28;20419;-71
2023/08/29 09:35:16;;;;;;;0.98;0.52;;;20.30;99.90;;;;;;5091308;28;20550;-71
2023/08/29 09:37:47;;;;;;;1.83;0.57;;;20.00;99.90;;;;;;5091614;28;20036;-70
2023/08/29 09:40:17;;;;;;;0.35;0.35;;;19.90;99.90;;;;;;5073627;28;20061;-70
2023/08/29 09:42:52;;;;;;;0.82;0.40;;;19.70;99.90;;;;;;5073747;28;20065;-70
2023/08/29 09:45:18;;;;;;;1.67;0.60;;;19.60;99.90;;;;;;5091716;28;20036;-69
2023/08/29 09:47:43;;;;;;;1.77;0.93;;;19.60;99.90;;;;;;5091442;28;20028;-69
2023/08/29 09:50:09;;;;;;;1.25;0.60;;;19.50;99.90;;;;;;5091383;28;20036;-69
2023/08/29 09:52:35;;;;;;;1.83;0.50;;;19.70;99.90;;;;;;5091755;28;20039;-70
2023/08/29 09:55:02;;;;;;;1.85;0.50;;;19.50;99.90;;;;;;5091665;28;20054;-70
2023/08/29 09:57:31;;;;;;;1.17;0.43;;;19.60;99.90;;;;;;5091000;28;20499;-70
2023/08/29 09:59:57;;;;;;;1.27;0.60;;;19.50;99.90;;;;;;5073386;28;20048;-70
2023/08/29 10:02:24;;;;;;;2.97;0.55;;;19.40;99.90;;;;;;5073363;28;20456;-70
2023/08/29 10:05:05;;;;;;;1.73;0.60;;;19.30;99.90;;;;;;5093365;28;20043;-70
2023/08/29 10:07:40;;;;;;;1.23;0.50;;;19.40;99.90;;;;;;5095489;28;20119;-70
2023/08/29 10:10:07;;;;;;;1.02;0.70;;;19.20;99.90;;;;;;5077362;28;20392;-72
2023/08/29 10:12:34;;;;;;;0.52;0.32;;;19.30;99.90;;;;;;5077765;28;20097;-72
2023/08/29 10:15:01;;;;;;;1.42;0.38;;;19.10;99.90;;;;;;5095936;28;20032;-70
2023/08/29 10:17:26;;;;;;;2.83;0.80;;;19.30;99.90;;;;;;5077301;28;20044;-70
2023/08/29 10:19:54;;;;;;;0.65;0.50;;;19.40;99.90;;;;;;5095459;28;20036;-70
2023/08/29 10:22:21;;;;;;;0.73;0.57;;;19.50;99.90;;;;;;5095626;28;20114;-70
2023/08/29 10:24:47;;;;;;;1.17;0.47;;;19.50;99.90;;;;;;5095080;28;20108;-70
2023/08/29 10:27:13;;;;;;;0.70;0.40;;;19.50;99.90;;;;;;5094537;28;20157;-70
2023/08/29 10:29:38;;;;;;;3.70;0.75;;;19.50;99.90;;;;;;5094822;28;20523;-70
2023/08/29 10:32:05;;;;;;;2.10;0.40;;;19.60;99.90;;;;;;5095093;28;20036;-72
2023/08/29 10:34:31;;;;;;;1.27;0.50;;;19.50;99.90;;;;;;5077125;28;20075;-71
2023/08/29 10:36:58;;;;;;;1.50;0.75;;;19.50;99.90;;;;;;5076660;28;20064;-73
2023/08/29 10:39:27;;;;;;;1.80;0.70;;;19.40;99.90;;;;;;5110418;28;20040;-72
2023/08/29 10:41:55;;;;;;;0.85;0.40;;;19.40;99.90;;;;;;5093893;28;20040;-72
2023/08/29 10:44:39;;;;;;;1.85;0.43;;;19.30;99.90;;;;;;5094973;28;20032;-73
2023/08/29 10:47:19;;;;;;;0.95;0.45;;;19.40;99.90;;;;;;5094777;28;20067;-72
2023/08/29 10:49:48;;;;;;;1.25;0.63;;;19.50;99.90;;;;;;5094653;28;20044;-74
2023/08/29 10:52:14;;;;;;;1.33;0.65;;;19.70;99.90;;;;;;5094776;28;20479;-72
2023/08/29 10:54:40;;;;;;;0.93;0.60;;;19.70;99.90;;;;;;5110840;28;20048;-71
2023/08/29 10:57:28;;;;;;;1.83;0.77;;;19.70;99.90;;;;;;5123996;22;20039;-68
2023/08/29 10:59:54;;;;;;;0.55;0.40;;;19.70;99.90;;;;;;5074327;28;20071;-67
2023/08/29 11:02:31;;;;;;;2.85;0.45;;;19.80;99.90;;;;;;5071744;28;20506;-68
2023/08/29 11:05:02;;;;;;;0.80;0.50;;;19.70;99.90;;;;;;5074638;28;20036;-67
2023/08/29 11:07:28;;;;;;;2.15;0.80;;;20.00;99.90;;;;;;5061736;28;20571;-67
2023/08/29 11:10:20;;;;;;;1.95;0.65;;;19.90;99.90;;;;;;5054328;28;20137;-67
2023/08/29 11:13:06;;;;;;;2.47;0.80;;;20.00;99.90;;;;;;5054364;28;20076;-67
2023/08/29 11:15:47;;;;;;;1.88;0.60;;;20.00;99.90;;;;;;5052763;28;20090;-67
2023/08/29 11:18:28;;;;;;;1.05;0.50;;;19.90;99.90;;;;;;5054266;28;20043;-67
2023/08/29 11:20:54;;;;;;;0.50;0.40;;;19.90;99.90;;;;;;5054114;28;20037;-67
2023/08/29 11:23:21;;;;;;;0.98;0.60;;;19.80;99.90;;;;;;5054030;28;20140;-67
2023/08/29 11:25:51;;;;;;;1.52;0.73;;;19.90;99.90;;;;;;5054305;28;20041;-67
2023/08/29 11:28:18;;;;;;;1.67;1.00;;;19.90;99.90;;;;;;5054021;28;20045;-67
2023/08/29 11:30:45;;;;;;;3.47;0.93;;;19.80;99.90;;;;;;5053921;28;20500;-67
2023/08/29 11:33:14;;;;;;;3.65;0.73;;;19.90;99.90;;;;;;5053999;28;20685;-67
2023/08/29 11:35:40;;;;;;;3.78;0.70;;;19.90;99.90;;;;;;5053095;28;20094;-67
2023/08/29 11:38:06;;;;;;;1.58;0.60;;;20.00;99.90;;;;;;5053185;28;20045;-67
2023/08/29 11:40:33;;;;;;;1.80;0.73;;;20.10;99.90;;;;;;5053113;28;20404;-67
2023/08/29 11:42:59;;;;;;;1.48;0.80;;;20.40;99.90;;;;;;5053695;28;20048;-67
2023/08/29 11:45:30;;;;;;;2.05;0.70;;;20.50;99.90;;;;;;5053700;28;20404;-67
2023/08/29 11:47:56;;;;;;;2.85;0.80;;;20.50;99.90;;;;;;5052565;28;20052;-67
2023/08/29 11:50:22;;;;;;;3.40;1.58;;;20.40;99.90;;;;;;5053340;28;20497;-67
2023/08/29 11:52:48;;;;;;;2.38;0.80;;;20.60;99.90;;;;;;5053802;28;20032;-67
2023/08/29 11:55:16;;;;;;;1.33;1.00;;;20.70;99.90;;;;;;5053668;28;20037;-67
2023/08/29 11:57:45;;;;;;;2.60;0.68;;;20.80;99.90;;;;;;5053244;28;20274;-68
2023/08/29 12:00:13;;;;;;;1.55;1.30;;;20.90;99.90;;;;;;5053359;28;20045;-67
2023/08/29 12:02:39;;;;;;;2.40;0.90;;;20.80;99.90;;;;;;5052687;28;20049;-68
2023/08/29 12:05:08;;;;;;;3.60;1.08;;;20.90;99.90;;;;;;5050248;28;20043;-67
2023/08/29 12:07:36;;;;;;;3.45;1.00;;;20.90;99.90;;;;;;5053330;28;20072;-66
2023/08/29 12:10:14;;;;;;;1.60;0.90;;;20.70;99.90;;;;;;5053199;28;20106;-70
2023/08/29 12:12:40;;;;;;;4.72;1.40;;;20.60;99.90;;;;;;5053327;28;20120;-69
2023/08/29 12:15:10;;;;;;;1.67;1.13;;;20.50;99.90;;;;;;5052067;28;20123;-69
2023/08/29 12:17:39;;;;;;;2.35;1.08;;;20.50;99.90;;;;;;5052910;28;20032;-69
2023/08/29 12:20:29;;;;;;;1.75;1.05;;;20.40;99.90;;;;;;5052936;28;20550;-69
2023/08/29 12:22:55;;;;;;;1.67;0.82;;;20.30;99.90;;;;;;5045584;28;20055;-69
2023/08/29 12:25:21;;;;;;;2.67;1.13;;;20.20;99.90;;;;;;5052905;28;20037;-69
2023/08/29 12:27:48;;;;;;;1.98;1.17;;;20.00;99.90;;;;;;5051945;28;20053;-69
2023/08/29 12:30:14;;;;;;;1.60;0.90;;;20.00;99.90;;;;;;5052996;28;20400;-69
2023/08/29 12:32:42;;;;;;;2.03;1.10;;;19.90;99.90;;;;;;5053163;28;20048;-69
2023/08/29 12:35:08;;;;;;;1.77;1.02;;;20.00;99.90;;;;;;5051745;28;20044;-69
2023/08/29 12:37:34;;;;;;;2.00;0.98;;;20.00;99.90;;;;;;5052656;28;20681;-69
2023/08/29 12:40:01;;;;;;;2.20;1.10;;;20.00;99.90;;;;;;5052543;28;20497;-68
2023/08/29 12:42:27;;;;;;;1.65;1.05;;;19.90;99.90;;;;;;5051235;28;20439;-68
2023/08/29 12:44:53;;;;;;;2.83;1.10;;;20.00;99.90;;;;;;5052842;28;20041;-68
2023/08/29 12:47:18;;;;;;;4.60;2.05;;;20.30;99.90;;;;;;5052349;28;20461;-68